sensor_id;sensor_type;location;lat;lon;timestamp;P1;durP1;ratioP1;P2;durP2;ratioP2
12603;SDS011;6367;52.508;13.284;2023-04-06T00:01:39;5.90;;;5.30;;
12603;SDS011;6367;52.508;13.284;2023-04-06T00:04:04;6.50;;;5.00;;
12603;SDS011;6367;52.508;13.284;2023-04-06T00:06:31;4.83;;;4.33;;
12603;SDS011;6367;52.508;13.284;2023-04-06T00:08:57;5.30;;;4.80;;
12603;SDS011;6367;52.508;13.284;2023-04-06T00:11:24;5.13;;;4.57;;
12603;SDS011;6367;52.508;13.284;2023-04-06T00:13:50;7.00;;;4.97;;
12603;SDS011;6367;52.508;13.284;2023-04-06T00:16:15;7.67;;;5.20;;
12603;SDS011;6367;52.508;13.284;2023-04-06T00:18:41;6.17;;;5.10;;
12603;SDS011;6367;52.508;13.284;2023-04-06T00:21:07;4.43;;;3.93;;
12603;SDS011;6367;52.508;13.284;2023-04-06T00:23:33;6.00;;;4.93;;
12603;SDS011;6367;52.508;13.284;2023-04-06T00:25:59;5.13;;;4.63;;
12603;SDS011;6367;52.508;13.284;2023-04-06T00:28:25;5.97;;;5.00;;
12603;SDS011;6367;52.508;13.284;2023-04-06T00:30:54;5.00;;;4.60;;
12603;SDS011;6367;52.508;13.284;2023-04-06T00:33:20;5.90;;;5.30;;
12603;SDS011;6367;52.508;13.284;2023-04-06T00:35:47;5.60;;;4.73;;
12603;SDS011;6367;52.508;13.284;2023-04-06T00:38:13;7.83;;;4.60;;
12603;SDS011;6367;52.508;13.284;2023-04-06T00:40:39;6.23;;;5.17;;
12603;SDS011;6367;52.508;13.284;2023-04-06T00:43:05;6.57;;;5.20;;
12603;SDS011;6367;52.508;13.284;2023-04-06T00:45:32;5.13;;;4.63;;
12603;SDS011;6367;52.508;13.284;2023-04-06T00:47:58;6.40;;;5.00;;
12603;SDS011;6367;52.508;13.284;2023-04-06T00:50:24;7.63;;;4.73;;
12603;SDS011;6367;52.508;13.284;2023-04-06T00:52:50;5.70;;;5.10;;
12603;SDS011;6367;52.508;13.284;2023-04-06T00:55:16;6.57;;;5.20;;
12603;SDS011;6367;52.508;13.284;2023-04-06T00:57:42;6.50;;;5.10;;
12603;SDS011;6367;52.508;13.284;2023-04-06T01:00:08;6.50;;;5.33;;
12603;SDS011;6367;52.508;13.284;2023-04-06T01:02:35;5.20;;;4.70;;
12603;SDS011;6367;52.508;13.284;2023-04-06T01:05:01;8.50;;;5.33;;
12603;SDS011;6367;52.508;13.284;2023-04-06T01:07:27;8.60;;;5.67;;
12603;SDS011;6367;52.508;13.284;2023-04-06T01:09:53;6.23;;;5.23;;
12603;SDS011;6367;52.508;13.284;2023-04-06T01:12:19;7.83;;;5.10;;
12603;SDS011;6367;52.508;13.284;2023-04-06T01:14:45;7.13;;;4.97;;
12603;SDS011;6367;52.508;13.284;2023-04-06T01:17:11;7.03;;;5.57;;
12603;SDS011;6367;52.508;13.284;2023-04-06T01:19:37;6.43;;;5.60;;
12603;SDS011;6367;52.508;13.284;2023-04-06T01:22:04;5.87;;;5.27;;
12603;SDS011;6367;52.508;13.284;2023-04-06T01:24:30;4.83;;;4.30;;
12603;SDS011;6367;52.508;13.284;2023-04-06T01:26:56;6.70;;;5.17;;
12603;SDS011;6367;52.508;13.284;2023-04-06T01:29:21;5.47;;;4.50;;
12603;SDS011;6367;52.508;13.284;2023-04-06T01:31:47;7.23;;;4.63;;
12603;SDS011;6367;52.508;13.284;2023-04-06T01:34:13;5.27;;;4.23;;
12603;SDS011;6367;52.508;13.284;2023-04-06T01:36:38;5.80;;;5.10;;
12603;SDS011;6367;52.508;13.284;2023-04-06T01:39:04;5.27;;;4.70;;
12603;SDS011;6367;52.508;13.284;2023-04-06T01:41:30;5.60;;;5.00;;
12603;SDS011;6367;52.508;13.284;2023-04-06T01:43:56;5.93;;;5.00;;
12603;SDS011;6367;52.508;13.284;2023-04-06T01:46:21;8.87;;;5.80;;
12603;SDS011;6367;52.508;13.284;2023-04-06T01:48:47;4.90;;;4.50;;
12603;SDS011;6367;52.508;13.284;2023-04-06T01:51:13;5.80;;;4.90;;
12603;SDS011;6367;52.508;13.284;2023-04-06T01:53:39;5.80;;;4.97;;
12603;SDS011;6367;52.508;13.284;2023-04-06T01:56:05;5.23;;;4.30;;
12603;SDS011;6367;52.508;13.284;2023-04-06T01:58:31;4.97;;;4.50;;
12603;SDS011;6367;52.508;13.284;2023-04-06T02:00:57;5.50;;;5.00;;
12603;SDS011;6367;52.508;13.284;2023-04-06T02:03:22;7.80;;;5.50;;
12603;SDS011;6367;52.508;13.284;2023-04-06T02:05:48;10.07;;;5.07;;
12603;SDS011;6367;52.508;13.284;2023-04-06T02:08:14;6.70;;;5.30;;
12603;SDS011;6367;52.508;13.284;2023-04-06T02:10:40;6.20;;;4.70;;
12603;SDS011;6367;52.508;13.284;2023-04-06T02:13:06;6.63;;;5.53;;
12603;SDS011;6367;52.508;13.284;2023-04-06T02:15:31;6.40;;;4.90;;
12603;SDS011;6367;52.508;13.284;2023-04-06T02:17:59;8.83;;;5.57;;
12603;SDS011;6367;52.508;13.284;2023-04-06T02:20:26;6.53;;;4.90;;
12603;SDS011;6367;52.508;13.284;2023-04-06T02:22:51;6.40;;;4.77;;
12603;SDS011;6367;52.508;13.284;2023-04-06T02:25:17;7.03;;;5.57;;
12603;SDS011;6367;52.508;13.284;2023-04-06T02:27:43;8.43;;;4.90;;
12603;SDS011;6367;52.508;13.284;2023-04-06T02:30:08;5.27;;;4.77;;
12603;SDS011;6367;52.508;13.284;2023-04-06T02:32:35;6.83;;;5.30;;
12603;SDS011;6367;52.508;13.284;2023-04-06T02:35:00;5.50;;;4.27;;
12603;SDS011;6367;52.508;13.284;2023-04-06T02:37:26;5.70;;;4.87;;
12603;SDS011;6367;52.508;13.284;2023-04-06T02:39:52;7.40;;;5.30;;
12603;SDS011;6367;52.508;13.284;2023-04-06T02:42:18;8.10;;;4.63;;
12603;SDS011;6367;52.508;13.284;2023-04-06T02:44:43;5.40;;;4.87;;
12603;SDS011;6367;52.508;13.284;2023-04-06T02:47:09;6.33;;;5.37;;
12603;SDS011;6367;52.508;13.284;2023-04-06T02:49:35;7.40;;;5.33;;
12603;SDS011;6367;52.508;13.284;2023-04-06T02:52:01;6.80;;;4.80;;
12603;SDS011;6367;52.508;13.284;2023-04-06T02:54:27;7.70;;;5.30;;
12603;SDS011;6367;52.508;13.284;2023-04-06T02:56:53;7.47;;;5.80;;
12603;SDS011;6367;52.508;13.284;2023-04-06T02:59:19;5.60;;;4.70;;
12603;SDS011;6367;52.508;13.284;2023-04-06T03:01:44;5.73;;;4.93;;
12603;SDS011;6367;52.508;13.284;2023-04-06T03:04:10;5.70;;;5.10;;
12603;SDS011;6367;52.508;13.284;2023-04-06T03:06:36;6.73;;;5.83;;
12603;SDS011;6367;52.508;13.284;2023-04-06T03:09:02;6.57;;;4.97;;
12603;SDS011;6367;52.508;13.284;2023-04-06T03:11:28;6.63;;;5.87;;
12603;SDS011;6367;52.508;13.284;2023-04-06T03:13:53;4.80;;;4.37;;
12603;SDS011;6367;52.508;13.284;2023-04-06T03:16:19;6.43;;;5.13;;
12603;SDS011;6367;52.508;13.284;2023-04-06T03:18:45;6.00;;;5.17;;
12603;SDS011;6367;52.508;13.284;2023-04-06T03:21:12;6.30;;;5.23;;
12603;SDS011;6367;52.508;13.284;2023-04-06T03:23:41;7.13;;;5.40;;
12603;SDS011;6367;52.508;13.284;2023-04-06T03:26:07;6.40;;;5.27;;
12603;SDS011;6367;52.508;13.284;2023-04-06T03:28:33;7.47;;;5.70;;
12603;SDS011;6367;52.508;13.284;2023-04-06T03:30:58;8.00;;;6.00;;
12603;SDS011;6367;52.508;13.284;2023-04-06T03:33:25;5.73;;;5.10;;
12603;SDS011;6367;52.508;13.284;2023-04-06T03:35:53;5.23;;;4.73;;
12603;SDS011;6367;52.508;13.284;2023-04-06T03:38:19;8.70;;;5.43;;
12603;SDS011;6367;52.508;13.284;2023-04-06T03:40:45;7.00;;;5.40;;
12603;SDS011;6367;52.508;13.284;2023-04-06T03:43:11;6.67;;;5.50;;
12603;SDS011;6367;52.508;13.284;2023-04-06T03:45:37;7.57;;;5.43;;
12603;SDS011;6367;52.508;13.284;2023-04-06T03:48:03;5.70;;;5.17;;
12603;SDS011;6367;52.508;13.284;2023-04-06T03:50:29;6.90;;;4.83;;
12603;SDS011;6367;52.508;13.284;2023-04-06T03:52:55;7.43;;;6.20;;
12603;SDS011;6367;52.508;13.284;2023-04-06T03:55:21;8.57;;;5.20;;
12603;SDS011;6367;52.508;13.284;2023-04-06T03:57:47;5.43;;;4.93;;
12603;SDS011;6367;52.508;13.284;2023-04-06T04:00:12;5.10;;;4.60;;
12603;SDS011;6367;52.508;13.284;2023-04-06T04:02:38;5.70;;;4.80;;
12603;SDS011;6367;52.508;13.284;2023-04-06T04:05:04;7.93;;;5.00;;
12603;SDS011;6367;52.508;13.284;2023-04-06T04:07:30;6.00;;;4.97;;
12603;SDS011;6367;52.508;13.284;2023-04-06T04:09:56;6.80;;;5.50;;
12603;SDS011;6367;52.508;13.284;2023-04-06T04:12:22;8.03;;;5.53;;
12603;SDS011;6367;52.508;13.284;2023-04-06T04:14:47;7.13;;;5.03;;
12603;SDS011;6367;52.508;13.284;2023-04-06T04:17:13;5.70;;;4.53;;
12603;SDS011;6367;52.508;13.284;2023-04-06T04:19:39;6.50;;;5.00;;
12603;SDS011;6367;52.508;13.284;2023-04-06T04:22:05;7.17;;;5.30;;
12603;SDS011;6367;52.508;13.284;2023-04-06T04:24:31;8.00;;;5.07;;
12603;SDS011;6367;52.508;13.284;2023-04-06T04:26:59;9.37;;;6.40;;
12603;SDS011;6367;52.508;13.284;2023-04-06T04:29:25;8.47;;;5.17;;
12603;SDS011;6367;52.508;13.284;2023-04-06T04:31:51;7.77;;;5.50;;
12603;SDS011;6367;52.508;13.284;2023-04-06T04:34:17;6.67;;;4.60;;
12603;SDS011;6367;52.508;13.284;2023-04-06T04:36:45;5.30;;;4.77;;
12603;SDS011;6367;52.508;13.284;2023-04-06T04:39:11;5.93;;;4.97;;
12603;SDS011;6367;52.508;13.284;2023-04-06T04:41:37;6.90;;;5.40;;
12603;SDS011;6367;52.508;13.284;2023-04-06T04:44:03;6.73;;;4.77;;
12603;SDS011;6367;52.508;13.284;2023-04-06T04:46:28;7.40;;;5.53;;
12603;SDS011;6367;52.508;13.284;2023-04-06T04:48:54;7.80;;;5.70;;
12603;SDS011;6367;52.508;13.284;2023-04-06T04:51:20;5.50;;;5.00;;
12603;SDS011;6367;52.508;13.284;2023-04-06T04:53:46;6.23;;;5.57;;
12603;SDS011;6367;52.508;13.284;2023-04-06T04:56:11;5.90;;;5.23;;
12603;SDS011;6367;52.508;13.284;2023-04-06T04:58:37;6.95;;;5.05;;
12603;SDS011;6367;52.508;13.284;2023-04-06T05:01:03;7.00;;;5.50;;
12603;SDS011;6367;52.508;13.284;2023-04-06T05:03:28;7.60;;;5.50;;
12603;SDS011;6367;52.508;13.284;2023-04-06T05:05:54;7.00;;;5.73;;
12603;SDS011;6367;52.508;13.284;2023-04-06T05:08:20;11.20;;;6.30;;
12603;SDS011;6367;52.508;13.284;2023-04-06T05:10:46;7.93;;;7.10;;
12603;SDS011;6367;52.508;13.284;2023-04-06T05:13:13;8.90;;;6.43;;
12603;SDS011;6367;52.508;13.284;2023-04-06T05:15:39;13.63;;;6.87;;
12603;SDS011;6367;52.508;13.284;2023-04-06T05:18:06;7.50;;;6.70;;
12603;SDS011;6367;52.508;13.284;2023-04-06T05:20:32;9.00;;;7.50;;
12603;SDS011;6367;52.508;13.284;2023-04-06T05:22:58;9.30;;;7.27;;
12603;SDS011;6367;52.508;13.284;2023-04-06T05:25:24;7.60;;;6.90;;
12603;SDS011;6367;52.508;13.284;2023-04-06T05:27:50;9.23;;;7.07;;
12603;SDS011;6367;52.508;13.284;2023-04-06T05:30:16;9.30;;;7.60;;
12603;SDS011;6367;52.508;13.284;2023-04-06T05:32:42;10.43;;;6.67;;
12603;SDS011;6367;52.508;13.284;2023-04-06T05:35:09;8.10;;;7.30;;
12603;SDS011;6367;52.508;13.284;2023-04-06T05:37:36;9.73;;;7.20;;
12603;SDS011;6367;52.508;13.284;2023-04-06T05:40:02;9.80;;;7.97;;
12603;SDS011;6367;52.508;13.284;2023-04-06T05:42:35;8.00;;;7.20;;
12603;SDS011;6367;52.508;13.284;2023-04-06T05:45:06;9.27;;;7.20;;
12603;SDS011;6367;52.508;13.284;2023-04-06T05:47:32;7.93;;;7.10;;
12603;SDS011;6367;52.508;13.284;2023-04-06T05:49:58;9.87;;;8.10;;
12603;SDS011;6367;52.508;13.284;2023-04-06T05:52:24;8.30;;;7.50;;
12603;SDS011;6367;52.508;13.284;2023-04-06T05:54:49;7.43;;;6.67;;
12603;SDS011;6367;52.508;13.284;2023-04-06T05:57:15;8.70;;;7.73;;
12603;SDS011;6367;52.508;13.284;2023-04-06T05:59:44;9.50;;;7.73;;
12603;SDS011;6367;52.508;13.284;2023-04-06T06:02:10;8.77;;;7.70;;
12603;SDS011;6367;52.508;13.284;2023-04-06T06:04:35;8.77;;;7.70;;
12603;SDS011;6367;52.508;13.284;2023-04-06T06:07:01;11.50;;;8.57;;
12603;SDS011;6367;52.508;13.284;2023-04-06T06:09:27;8.80;;;7.70;;
12603;SDS011;6367;52.508;13.284;2023-04-06T06:11:53;10.87;;;8.60;;
12603;SDS011;6367;52.508;13.284;2023-04-06T06:14:18;8.93;;;8.03;;
12603;SDS011;6367;52.508;13.284;2023-04-06T06:16:45;10.10;;;8.90;;
12603;SDS011;6367;52.508;13.284;2023-04-06T06:19:10;8.90;;;8.10;;
12603;SDS011;6367;52.508;13.284;2023-04-06T06:21:36;11.27;;;8.33;;
12603;SDS011;6367;52.508;13.284;2023-04-06T06:24:02;10.90;;;9.17;;
12603;SDS011;6367;52.508;13.284;2023-04-06T06:26:28;11.00;;;8.93;;
12603;SDS011;6367;52.508;13.284;2023-04-06T06:28:53;10.67;;;9.67;;
12603;SDS011;6367;52.508;13.284;2023-04-06T06:31:20;9.40;;;8.33;;
12603;SDS011;6367;52.508;13.284;2023-04-06T06:33:47;9.83;;;7.83;;
12603;SDS011;6367;52.508;13.284;2023-04-06T06:36:19;9.23;;;7.90;;
12603;SDS011;6367;52.508;13.284;2023-04-06T06:38:45;8.00;;;7.20;;
12603;SDS011;6367;52.508;13.284;2023-04-06T06:41:10;8.83;;;8.03;;
12603;SDS011;6367;52.508;13.284;2023-04-06T06:43:36;9.40;;;7.10;;
12603;SDS011;6367;52.508;13.284;2023-04-06T06:46:02;8.60;;;7.80;;
12603;SDS011;6367;52.508;13.284;2023-04-06T06:48:28;8.37;;;7.27;;
12603;SDS011;6367;52.508;13.284;2023-04-06T06:50:54;7.80;;;7.10;;
12603;SDS011;6367;52.508;13.284;2023-04-06T06:53:20;7.90;;;7.10;;
12603;SDS011;6367;52.508;13.284;2023-04-06T06:55:46;8.90;;;8.00;;
12603;SDS011;6367;52.508;13.284;2023-04-06T06:58:13;8.27;;;7.37;;
12603;SDS011;6367;52.508;13.284;2023-04-06T07:00:39;11.57;;;7.80;;
12603;SDS011;6367;52.508;13.284;2023-04-06T07:03:05;6.87;;;6.17;;
12603;SDS011;6367;52.508;13.284;2023-04-06T07:05:31;8.30;;;6.30;;
12603;SDS011;6367;52.508;13.284;2023-04-06T07:07:57;8.20;;;6.47;;
12603;SDS011;6367;52.508;13.284;2023-04-06T07:10:23;9.80;;;6.97;;
12603;SDS011;6367;52.508;13.284;2023-04-06T07:12:49;8.17;;;6.63;;
12603;SDS011;6367;52.508;13.284;2023-04-06T07:15:15;7.20;;;6.50;;
12603;SDS011;6367;52.508;13.284;2023-04-06T07:17:41;6.53;;;5.83;;
12603;SDS011;6367;52.508;13.284;2023-04-06T07:20:10;9.33;;;5.60;;
12603;SDS011;6367;52.508;13.284;2023-04-06T07:22:36;5.97;;;5.40;;
12603;SDS011;6367;52.508;13.284;2023-04-06T07:25:03;6.73;;;6.07;;
12603;SDS011;6367;52.508;13.284;2023-04-06T07:27:29;6.43;;;5.40;;
12603;SDS011;6367;52.508;13.284;2023-04-06T07:29:54;6.17;;;5.40;;
12603;SDS011;6367;52.508;13.284;2023-04-06T07:32:20;6.10;;;5.50;;
12603;SDS011;6367;52.508;13.284;2023-04-06T07:34:46;6.90;;;5.37;;
12603;SDS011;6367;52.508;13.284;2023-04-06T07:37:12;8.03;;;5.30;;
12603;SDS011;6367;52.508;13.284;2023-04-06T07:39:37;5.30;;;4.80;;
12603;SDS011;6367;52.508;13.284;2023-04-06T07:42:03;5.60;;;5.10;;
12603;SDS011;6367;52.508;13.284;2023-04-06T07:44:29;9.50;;;5.00;;
12603;SDS011;6367;52.508;13.284;2023-04-06T07:46:55;6.53;;;5.33;;
12603;SDS011;6367;52.508;13.284;2023-04-06T07:49:21;7.10;;;5.20;;
12603;SDS011;6367;52.508;13.284;2023-04-06T07:51:47;7.60;;;4.67;;
12603;SDS011;6367;52.508;13.284;2023-04-06T07:54:13;5.87;;;5.10;;
12603;SDS011;6367;52.508;13.284;2023-04-06T07:56:39;4.90;;;4.40;;
12603;SDS011;6367;52.508;13.284;2023-04-06T07:59:04;6.73;;;4.90;;
12603;SDS011;6367;52.508;13.284;2023-04-06T08:01:30;5.80;;;5.17;;
12603;SDS011;6367;52.508;13.284;2023-04-06T08:03:56;5.07;;;4.40;;
12603;SDS011;6367;52.508;13.284;2023-04-06T08:06:22;6.83;;;4.70;;
12603;SDS011;6367;52.508;13.284;2023-04-06T08:08:48;5.07;;;3.97;;
12603;SDS011;6367;52.508;13.284;2023-04-06T08:11:13;5.77;;;4.43;;
12603;SDS011;6367;52.508;13.284;2023-04-06T08:13:39;4.83;;;4.33;;
12603;SDS011;6367;52.508;13.284;2023-04-06T08:16:05;4.30;;;3.90;;
12603;SDS011;6367;52.508;13.284;2023-04-06T08:18:31;4.37;;;3.77;;
12603;SDS011;6367;52.508;13.284;2023-04-06T08:20:57;4.10;;;3.73;;
12603;SDS011;6367;52.508;13.284;2023-04-06T08:23:23;4.27;;;3.87;;
12603;SDS011;6367;52.508;13.284;2023-04-06T08:25:48;5.80;;;4.33;;
12603;SDS011;6367;52.508;13.284;2023-04-06T08:28:14;5.00;;;3.63;;
12603;SDS011;6367;52.508;13.284;2023-04-06T08:30:41;4.23;;;2.90;;
12603;SDS011;6367;52.508;13.284;2023-04-06T08:33:07;5.10;;;4.13;;
12603;SDS011;6367;52.508;13.284;2023-04-06T08:35:33;4.83;;;3.63;;
12603;SDS011;6367;52.508;13.284;2023-04-06T08:37:59;3.50;;;3.20;;
12603;SDS011;6367;52.508;13.284;2023-04-06T08:40:25;5.33;;;3.43;;
12603;SDS011;6367;52.508;13.284;2023-04-06T08:42:54;4.60;;;3.80;;
12603;SDS011;6367;52.508;13.284;2023-04-06T08:45:21;4.40;;;3.43;;
12603;SDS011;6367;52.508;13.284;2023-04-06T08:47:51;4.50;;;3.83;;
12603;SDS011;6367;52.508;13.284;2023-04-06T08:50:17;3.80;;;3.27;;
12603;SDS011;6367;52.508;13.284;2023-04-06T08:52:45;3.50;;;2.97;;
12603;SDS011;6367;52.508;13.284;2023-04-06T08:55:13;3.00;;;2.70;;
12603;SDS011;6367;52.508;13.284;2023-04-06T08:57:39;3.80;;;2.60;;
12603;SDS011;6367;52.508;13.284;2023-04-06T09:00:07;4.77;;;2.57;;
12603;SDS011;6367;52.508;13.284;2023-04-06T09:02:36;3.97;;;3.20;;
12603;SDS011;6367;52.508;13.284;2023-04-06T09:05:06;2.60;;;2.40;;
12603;SDS011;6367;52.508;13.284;2023-04-06T09:07:33;4.90;;;2.83;;
12603;SDS011;6367;52.508;13.284;2023-04-06T09:10:00;3.07;;;2.43;;
12603;SDS011;6367;52.508;13.284;2023-04-06T09:12:29;5.17;;;3.07;;
12603;SDS011;6367;52.508;13.284;2023-04-06T09:14:56;3.43;;;3.10;;
12603;SDS011;6367;52.508;13.284;2023-04-06T09:17:23;4.93;;;2.97;;
12603;SDS011;6367;52.508;13.284;2023-04-06T09:19:51;4.63;;;2.67;;
12603;SDS011;6367;52.508;13.284;2023-04-06T09:22:17;4.60;;;3.00;;
12603;SDS011;6367;52.508;13.284;2023-04-06T09:24:44;3.40;;;3.10;;
12603;SDS011;6367;52.508;13.284;2023-04-06T09:27:17;3.30;;;2.70;;
12603;SDS011;6367;52.508;13.284;2023-04-06T09:29:43;4.20;;;2.67;;
12603;SDS011;6367;52.508;13.284;2023-04-06T09:32:09;3.73;;;2.80;;
12603;SDS011;6367;52.508;13.284;2023-04-06T09:34:37;4.47;;;2.70;;
12603;SDS011;6367;52.508;13.284;2023-04-06T09:37:15;3.47;;;2.37;;
12603;SDS011;6367;52.508;13.284;2023-04-06T09:39:43;3.20;;;2.90;;
12603;SDS011;6367;52.508;13.284;2023-04-06T09:42:11;3.50;;;2.73;;
12603;SDS011;6367;52.508;13.284;2023-04-06T09:44:48;2.83;;;2.60;;
12603;SDS011;6367;52.508;13.284;2023-04-06T09:47:13;3.43;;;2.00;;
12603;SDS011;6367;52.508;13.284;2023-04-06T09:49:41;2.43;;;1.90;;
12603;SDS011;6367;52.508;13.284;2023-04-06T09:52:10;2.13;;;1.93;;
12603;SDS011;6367;52.508;13.284;2023-04-06T09:54:37;3.37;;;2.30;;
12603;SDS011;6367;52.508;13.284;2023-04-06T10:02:06;2.90;;;2.60;;
12603;SDS011;6367;52.508;13.284;2023-04-06T10:04:50;2.67;;;2.47;;
12603;SDS011;6367;52.508;13.284;2023-04-06T10:07:22;3.10;;;2.73;;
12603;SDS011;6367;52.508;13.284;2023-04-06T10:09:48;3.10;;;2.13;;
12603;SDS011;6367;52.508;13.284;2023-04-06T10:12:15;5.10;;;2.80;;
12603;SDS011;6367;52.508;13.284;2023-04-06T10:14:42;5.47;;;2.67;;
12603;SDS011;6367;52.508;13.284;2023-04-06T10:17:09;4.07;;;2.33;;
12603;SDS011;6367;52.508;13.284;2023-04-06T10:19:41;7.50;;;2.90;;
12603;SDS011;6367;52.508;13.284;2023-04-06T10:22:29;2.90;;;2.40;;
12603;SDS011;6367;52.508;13.284;2023-04-06T10:25:31;2.77;;;2.47;;
12603;SDS011;6367;52.508;13.284;2023-04-06T10:28:08;3.30;;;2.27;;
12603;SDS011;6367;52.508;13.284;2023-04-06T10:30:35;2.30;;;2.10;;
12603;SDS011;6367;52.508;13.284;2023-04-06T10:33:16;2.60;;;2.40;;
12603;SDS011;6367;52.508;13.284;2023-04-06T10:35:45;2.63;;;2.37;;
12603;SDS011;6367;52.508;13.284;2023-04-06T10:38:12;4.70;;;2.70;;
12603;SDS011;6367;52.508;13.284;2023-04-06T10:40:39;2.63;;;2.43;;
12603;SDS011;6367;52.508;13.284;2023-04-06T10:43:08;3.93;;;2.67;;
12603;SDS011;6367;52.508;13.284;2023-04-06T10:45:35;4.73;;;2.20;;
12603;SDS011;6367;52.508;13.284;2023-04-06T10:48:23;3.23;;;2.40;;
12603;SDS011;6367;52.508;13.284;2023-04-06T10:50:50;2.40;;;2.10;;
12603;SDS011;6367;52.508;13.284;2023-04-06T10:53:20;2.83;;;2.53;;
12603;SDS011;6367;52.508;13.284;2023-04-06T10:55:50;2.30;;;2.10;;
12603;SDS011;6367;52.508;13.284;2023-04-06T10:58:17;2.50;;;2.30;;
12603;SDS011;6367;52.508;13.284;2023-04-06T11:00:47;3.23;;;2.20;;
12603;SDS011;6367;52.508;13.284;2023-04-06T11:03:14;3.00;;;1.90;;
12603;SDS011;6367;52.508;13.284;2023-04-06T11:05:47;4.53;;;2.50;;
12603;SDS011;6367;52.508;13.284;2023-04-06T11:08:33;2.40;;;2.20;;
12603;SDS011;6367;52.508;13.284;2023-04-06T11:11:05;2.70;;;2.50;;
12603;SDS011;6367;52.508;13.284;2023-04-06T11:13:41;3.67;;;2.40;;
12603;SDS011;6367;52.508;13.284;2023-04-06T11:16:17;3.67;;;2.60;;
12603;SDS011;6367;52.508;13.284;2023-04-06T11:21:16;2.63;;;2.43;;
12603;SDS011;6367;52.508;13.284;2023-04-06T11:23:42;2.93;;;2.50;;
12603;SDS011;6367;52.508;13.284;2023-04-06T11:26:11;2.50;;;2.30;;
12603;SDS011;6367;52.508;13.284;2023-04-06T11:28:39;2.47;;;2.27;;
12603;SDS011;6367;52.508;13.284;2023-04-06T11:31:07;5.23;;;2.30;;
12603;SDS011;6367;52.508;13.284;2023-04-06T11:33:37;3.97;;;2.80;;
12603;SDS011;6367;52.508;13.284;2023-04-06T11:36:04;2.90;;;2.57;;
12603;SDS011;6367;52.508;13.284;2023-04-06T11:38:30;2.90;;;2.53;;
12603;SDS011;6367;52.508;13.284;2023-04-06T11:40:56;2.80;;;2.60;;
12603;SDS011;6367;52.508;13.284;2023-04-06T11:43:28;3.30;;;2.47;;
12603;SDS011;6367;52.508;13.284;2023-04-06T11:46:02;2.30;;;2.10;;
12603;SDS011;6367;52.508;13.284;2023-04-06T11:48:29;2.70;;;2.30;;
12603;SDS011;6367;52.508;13.284;2023-04-06T11:50:56;2.70;;;2.50;;
12603;SDS011;6367;52.508;13.284;2023-04-06T11:53:23;3.47;;;2.67;;
12603;SDS011;6367;52.508;13.284;2023-04-06T11:55:49;3.53;;;2.70;;
12603;SDS011;6367;52.508;13.284;2023-04-06T11:58:15;3.13;;;2.83;;
12603;SDS011;6367;52.508;13.284;2023-04-06T12:00:41;3.13;;;2.83;;
12603;SDS011;6367;52.508;13.284;2023-04-06T12:03:10;2.33;;;2.13;;
12603;SDS011;6367;52.508;13.284;2023-04-06T12:05:37;4.17;;;3.10;;
12603;SDS011;6367;52.508;13.284;2023-04-06T12:08:03;3.50;;;3.20;;
12603;SDS011;6367;52.508;13.284;2023-04-06T12:10:29;4.20;;;3.23;;
12603;SDS011;6367;52.508;13.284;2023-04-06T12:12:55;5.00;;;3.23;;
12603;SDS011;6367;52.508;13.284;2023-04-06T12:15:20;3.20;;;2.80;;
12603;SDS011;6367;52.508;13.284;2023-04-06T12:17:46;3.43;;;2.90;;
12603;SDS011;6367;52.508;13.284;2023-04-06T12:20:12;4.73;;;3.23;;
12603;SDS011;6367;52.508;13.284;2023-04-06T12:22:38;3.67;;;3.23;;
12603;SDS011;6367;52.508;13.284;2023-04-06T12:25:05;3.53;;;3.23;;
12603;SDS011;6367;52.508;13.284;2023-04-06T12:27:34;5.73;;;3.00;;
12603;SDS011;6367;52.508;13.284;2023-04-06T12:30:00;4.50;;;3.40;;
12603;SDS011;6367;52.508;13.284;2023-04-06T12:32:27;3.30;;;3.00;;
12603;SDS011;6367;52.508;13.284;2023-04-06T12:34:53;5.40;;;2.73;;
12603;SDS011;6367;52.508;13.284;2023-04-06T12:37:18;4.23;;;2.73;;
12603;SDS011;6367;52.508;13.284;2023-04-06T12:39:45;3.30;;;3.00;;
12603;SDS011;6367;52.508;13.284;2023-04-06T12:42:11;3.23;;;2.60;;
12603;SDS011;6367;52.508;13.284;2023-04-06T12:44:38;2.87;;;2.60;;
12603;SDS011;6367;52.508;13.284;2023-04-06T12:47:04;3.53;;;2.50;;
12603;SDS011;6367;52.508;13.284;2023-04-06T12:49:32;3.90;;;2.70;;
12603;SDS011;6367;52.508;13.284;2023-04-06T12:51:58;3.30;;;3.10;;
12603;SDS011;6367;52.508;13.284;2023-04-06T12:54:23;3.47;;;3.17;;
12603;SDS011;6367;52.508;13.284;2023-04-06T12:56:51;3.70;;;3.40;;
12603;SDS011;6367;52.508;13.284;2023-04-06T12:59:17;3.30;;;3.00;;
12603;SDS011;6367;52.508;13.284;2023-04-06T13:01:43;4.03;;;3.60;;
12603;SDS011;6367;52.508;13.284;2023-04-06T13:04:09;4.27;;;3.80;;
12603;SDS011;6367;52.508;13.284;2023-04-06T13:06:35;3.27;;;2.97;;
12603;SDS011;6367;52.508;13.284;2023-04-06T13:09:01;7.73;;;6.77;;
12603;SDS011;6367;52.508;13.284;2023-04-06T13:11:27;10.97;;;9.40;;
12603;SDS011;6367;52.508;13.284;2023-04-06T13:13:53;19.57;;;16.67;;
12603;SDS011;6367;52.508;13.284;2023-04-06T13:16:19;11.07;;;7.90;;
12603;SDS011;6367;52.508;13.284;2023-04-06T13:18:45;20.77;;;16.37;;
12603;SDS011;6367;52.508;13.284;2023-04-06T13:21:13;7.53;;;6.70;;
12603;SDS011;6367;52.508;13.284;2023-04-06T13:23:41;27.40;;;24.40;;
12603;SDS011;6367;52.508;13.284;2023-04-06T13:26:07;36.30;;;30.17;;
12603;SDS011;6367;52.508;13.284;2023-04-06T13:28:34;7.80;;;6.70;;
12603;SDS011;6367;52.508;13.284;2023-04-06T13:31:02;11.10;;;8.40;;
12603;SDS011;6367;52.508;13.284;2023-04-06T13:33:28;3.93;;;3.63;;
12603;SDS011;6367;52.508;13.284;2023-04-06T13:35:55;3.73;;;3.43;;
12603;SDS011;6367;52.508;13.284;2023-04-06T13:38:24;4.33;;;3.93;;
12603;SDS011;6367;52.508;13.284;2023-04-06T13:40:50;3.40;;;3.10;;
12603;SDS011;6367;52.508;13.284;2023-04-06T13:43:16;5.07;;;3.50;;
12603;SDS011;6367;52.508;13.284;2023-04-06T13:45:49;3.90;;;3.60;;
12603;SDS011;6367;52.508;13.284;2023-04-06T13:48:16;3.13;;;2.83;;
12603;SDS011;6367;52.508;13.284;2023-04-06T13:50:42;3.70;;;3.00;;
12603;SDS011;6367;52.508;13.284;2023-04-06T13:53:08;3.70;;;3.40;;
12603;SDS011;6367;52.508;13.284;2023-04-06T13:55:33;3.33;;;3.10;;
12603;SDS011;6367;52.508;13.284;2023-04-06T13:57:59;3.10;;;2.80;;
12603;SDS011;6367;52.508;13.284;2023-04-06T14:00:25;3.30;;;2.87;;
12603;SDS011;6367;52.508;13.284;2023-04-06T14:02:53;3.47;;;3.17;;
12603;SDS011;6367;52.508;13.284;2023-04-06T14:05:20;3.40;;;2.77;;
12603;SDS011;6367;52.508;13.284;2023-04-06T14:07:46;3.50;;;3.20;;
12603;SDS011;6367;52.508;13.284;2023-04-06T14:10:12;3.87;;;3.47;;
12603;SDS011;6367;52.508;13.284;2023-04-06T14:12:44;3.50;;;3.20;;
12603;SDS011;6367;52.508;13.284;2023-04-06T14:15:11;5.17;;;3.27;;
12603;SDS011;6367;52.508;13.284;2023-04-06T14:17:37;2.97;;;2.77;;
12603;SDS011;6367;52.508;13.284;2023-04-06T14:20:04;4.20;;;3.40;;
12603;SDS011;6367;52.508;13.284;2023-04-06T14:22:31;3.47;;;3.23;;
12603;SDS011;6367;52.508;13.284;2023-04-06T14:24:56;3.33;;;3.03;;
12603;SDS011;6367;52.508;13.284;2023-04-06T14:27:22;4.40;;;2.97;;
12603;SDS011;6367;52.508;13.284;2023-04-06T14:29:48;4.10;;;3.67;;
12603;SDS011;6367;52.508;13.284;2023-04-06T14:32:14;3.97;;;3.37;;
12603;SDS011;6367;52.508;13.284;2023-04-06T14:34:40;3.90;;;3.57;;
12603;SDS011;6367;52.508;13.284;2023-04-06T14:37:06;8.70;;;3.60;;
12603;SDS011;6367;52.508;13.284;2023-04-06T14:39:32;4.00;;;3.20;;
12603;SDS011;6367;52.508;13.284;2023-04-06T14:41:57;3.30;;;3.10;;
12603;SDS011;6367;52.508;13.284;2023-04-06T14:44:23;3.43;;;3.07;;
12603;SDS011;6367;52.508;13.284;2023-04-06T14:46:49;3.10;;;2.80;;
12603;SDS011;6367;52.508;13.284;2023-04-06T14:49:15;3.67;;;3.07;;
12603;SDS011;6367;52.508;13.284;2023-04-06T14:51:40;3.40;;;3.17;;
12603;SDS011;6367;52.508;13.284;2023-04-06T14:54:06;3.70;;;3.40;;